sensor_id;sensor_type;location;lat;lon;timestamp;temperature;humidity
59148;DHT22;44930;52.878;6.168;2024-02-23T00:01:44;5.60;99.90
59148;DHT22;44930;52.878;6.168;2024-02-23T00:04:10;5.70;99.90
59148;DHT22;44930;52.878;6.168;2024-02-23T00:06:35;5.70;99.90
59148;DHT22;44930;52.878;6.168;2024-02-23T00:09:01;5.60;99.90
59148;DHT22;44930;52.878;6.168;2024-02-23T00:13:57;5.60;99.90
59148;DHT22;44930;52.878;6.168;2024-02-23T00:21:15;5.00;99.90
59148;DHT22;44930;52.878;6.168;2024-02-23T00:23:40;4.70;99.90
59148;DHT22;44930;52.878;6.168;2024-02-23T00:28:32;4.50;99.90
59148;DHT22;44930;52.878;6.168;2024-02-23T00:33:24;4.30;99.90
59148;DHT22;44930;52.878;6.168;2024-02-23T00:35:49;4.30;99.90
59148;DHT22;44930;52.878;6.168;2024-02-23T00:38:15;4.30;99.90
59148;DHT22;44930;52.878;6.168;2024-02-23T00:40:41;4.30;99.90
59148;DHT22;44930;52.878;6.168;2024-02-23T00:43:07;4.30;99.90
59148;DHT22;44930;52.878;6.168;2024-02-23T00:47:58;4.20;99.90
59148;DHT22;44930;52.878;6.168;2024-02-23T00:50:24;4.30;99.90
59148;DHT22;44930;52.878;6.168;2024-02-23T00:52:51;4.30;99.90
59148;DHT22;44930;52.878;6.168;2024-02-23T00:57:44;4.40;99.90
59148;DHT22;44930;52.878;6.168;2024-02-23T01:00:11;4.60;99.90
59148;DHT22;44930;52.878;6.168;2024-02-23T01:05:03;4.50;99.90
59148;DHT22;44930;52.878;6.168;2024-02-23T01:07:29;4.70;99.90
59148;DHT22;44930;52.878;6.168;2024-02-23T01:09:55;4.90;99.90
59148;DHT22;44930;52.878;6.168;2024-02-23T01:12:20;4.80;99.90
59148;DHT22;44930;52.878;6.168;2024-02-23T01:14:46;4.90;99.90
59148;DHT22;44930;52.878;6.168;2024-02-23T01:17:14;5.00;99.90
59148;DHT22;44930;52.878;6.168;2024-02-23T01:19:41;4.90;99.90
59148;DHT22;44930;52.878;6.168;2024-02-23T01:24:33;4.90;99.90
59148;DHT22;44930;52.878;6.168;2024-02-23T01:26:58;5.20;99.90
59148;DHT22;44930;52.878;6.168;2024-02-23T01:29:25;5.20;99.90
59148;DHT22;44930;52.878;6.168;2024-02-23T01:31:51;5.30;99.90
59148;DHT22;44930;52.878;6.168;2024-02-23T01:34:17;5.40;99.90
59148;DHT22;44930;52.878;6.168;2024-02-23T01:36:44;5.50;99.90
59148;DHT22;44930;52.878;6.168;2024-02-23T01:41:36;5.70;99.90
59148;DHT22;44930;52.878;6.168;2024-02-23T01:44:02;5.90;99.90
59148;DHT22;44930;52.878;6.168;2024-02-23T01:48:54;5.90;99.90
59148;DHT22;44930;52.878;6.168;2024-02-23T01:51:20;5.90;99.90
59148;DHT22;44930;52.878;6.168;2024-02-23T01:53:46;6.00;99.90
59148;DHT22;44930;52.878;6.168;2024-02-23T01:56:13;6.30;99.90
59148;DHT22;44930;52.878;6.168;2024-02-23T01:58:43;6.10;99.90
59148;DHT22;44930;52.878;6.168;2024-02-23T02:06:09;6.40;99.90
59148;DHT22;44930;52.878;6.168;2024-02-23T02:11:02;6.20;99.90
59148;DHT22;44930;52.878;6.168;2024-02-23T02:16:01;6.30;99.90
59148;DHT22;44930;52.878;6.168;2024-02-23T02:18:27;6.40;99.90
59148;DHT22;44930;52.878;6.168;2024-02-23T02:20:57;6.70;99.90
59148;DHT22;44930;52.878;6.168;2024-02-23T02:23:23;6.30;99.90
59148;DHT22;44930;52.878;6.168;2024-02-23T02:25:56;6.30;99.90
59148;DHT22;44930;52.878;6.168;2024-02-23T02:28:23;6.40;99.90
59148;DHT22;44930;52.878;6.168;2024-02-23T02:30:50;6.10;99.90
59148;DHT22;44930;52.878;6.168;2024-02-23T02:33:16;6.20;99.90
59148;DHT22;44930;52.878;6.168;2024-02-23T02:35:41;6.20;99.90
59148;DHT22;44930;52.878;6.168;2024-02-23T02:38:08;6.10;99.90
59148;DHT22;44930;52.878;6.168;2024-02-23T02:40:33;6.30;99.90
59148;DHT22;44930;52.878;6.168;2024-02-23T02:42:59;6.40;99.90
59148;DHT22;44930;52.878;6.168;2024-02-23T02:45:24;6.20;99.90
59148;DHT22;44930;52.878;6.168;2024-02-23T02:47:50;6.20;99.90
59148;DHT22;44930;52.878;6.168;2024-02-23T02:50:16;6.40;99.90
59148;DHT22;44930;52.878;6.168;2024-02-23T02:52:42;6.20;99.90
59148;DHT22;44930;52.878;6.168;2024-02-23T02:55:08;6.30;99.90
59148;DHT22;44930;52.878;6.168;2024-02-23T02:57:34;6.20;99.90
59148;DHT22;44930;52.878;6.168;2024-02-23T03:00:05;6.20;99.90
59148;DHT22;44930;52.878;6.168;2024-02-23T03:05:13;6.10;99.90
59148;DHT22;44930;52.878;6.168;2024-02-23T03:07:39;6.00;99.90
59148;DHT22;44930;52.878;6.168;2024-02-23T03:10:05;6.10;99.90
59148;DHT22;44930;52.878;6.168;2024-02-23T03:12:31;6.00;99.90
59148;DHT22;44930;52.878;6.168;2024-02-23T03:14:56;6.00;99.90
59148;DHT22;44930;52.878;6.168;2024-02-23T03:17:22;5.90;99.90
59148;DHT22;44930;52.878;6.168;2024-02-23T03:19:48;6.10;99.90
59148;DHT22;44930;52.878;6.168;2024-02-23T03:22:15;5.90;99.90
59148;DHT22;44930;52.878;6.168;2024-02-23T03:27:08;5.90;99.90
59148;DHT22;44930;52.878;6.168;2024-02-23T03:29:35;5.70;99.90
59148;DHT22;44930;52.878;6.168;2024-02-23T03:32:01;6.00;99.90
59148;DHT22;44930;52.878;6.168;2024-02-23T03:34:27;6.20;99.90
59148;DHT22;44930;52.878;6.168;2024-02-23T03:36:52;6.10;99.90
59148;DHT22;44930;52.878;6.168;2024-02-23T03:39:18;6.10;99.90
59148;DHT22;44930;52.878;6.168;2024-02-23T03:41:44;6.10;99.90
59148;DHT22;44930;52.878;6.168;2024-02-23T03:44:09;6.10;99.90
59148;DHT22;44930;52.878;6.168;2024-02-23T03:46:35;6.00;99.90
59148;DHT22;44930;52.878;6.168;2024-02-23T03:51:27;6.00;99.90
59148;DHT22;44930;52.878;6.168;2024-02-23T03:53:52;6.10;99.90
59148;DHT22;44930;52.878;6.168;2024-02-23T03:56:18;5.90;99.90
59148;DHT22;44930;52.878;6.168;2024-02-23T03:58:43;5.90;99.90
59148;DHT22;44930;52.878;6.168;2024-02-23T04:01:09;5.80;99.90
59148;DHT22;44930;52.878;6.168;2024-02-23T04:03:35;6.00;99.90
59148;DHT22;44930;52.878;6.168;2024-02-23T04:06:00;6.00;99.90
59148;DHT22;44930;52.878;6.168;2024-02-23T04:08:26;5.90;99.90
59148;DHT22;44930;52.878;6.168;2024-02-23T04:10:52;6.00;99.90
59148;DHT22;44930;52.878;6.168;2024-02-23T04:13:18;5.90;99.90
59148;DHT22;44930;52.878;6.168;2024-02-23T04:15:44;5.70;99.90
59148;DHT22;44930;52.878;6.168;2024-02-23T04:18:09;5.60;99.90
59148;DHT22;44930;52.878;6.168;2024-02-23T04:20:35;5.70;99.90
59148;DHT22;44930;52.878;6.168;2024-02-23T04:23:01;5.60;99.90
59148;DHT22;44930;52.878;6.168;2024-02-23T04:25:26;5.50;99.90
59148;DHT22;44930;52.878;6.168;2024-02-23T04:27:52;5.50;99.90
59148;DHT22;44930;52.878;6.168;2024-02-23T04:30:18;5.50;99.90
59148;DHT22;44930;52.878;6.168;2024-02-23T04:35:10;5.70;99.90
59148;DHT22;44930;52.878;6.168;2024-02-23T04:37:35;5.60;99.90
59148;DHT22;44930;52.878;6.168;2024-02-23T04:40:01;5.60;99.90
59148;DHT22;44930;52.878;6.168;2024-02-23T04:42:27;5.60;99.90
59148;DHT22;44930;52.878;6.168;2024-02-23T04:44:53;5.40;99.90
59148;DHT22;44930;52.878;6.168;2024-02-23T04:47:20;5.50;99.90
59148;DHT22;44930;52.878;6.168;2024-02-23T04:49:46;5.60;99.90
59148;DHT22;44930;52.878;6.168;2024-02-23T04:52:11;5.40;99.90
59148;DHT22;44930;52.878;6.168;2024-02-23T04:54:37;5.40;99.90
59148;DHT22;44930;52.878;6.168;2024-02-23T04:57:03;5.30;99.90
59148;DHT22;44930;52.878;6.168;2024-02-23T04:59:29;5.20;99.90
59148;DHT22;44930;52.878;6.168;2024-02-23T05:01:57;5.20;99.90
59148;DHT22;44930;52.878;6.168;2024-02-23T05:04:22;5.20;99.90
59148;DHT22;44930;52.878;6.168;2024-02-23T05:06:48;5.20;99.90
59148;DHT22;44930;52.878;6.168;2024-02-23T05:09:14;5.00;99.90
59148;DHT22;44930;52.878;6.168;2024-02-23T05:11:39;5.10;99.90
59148;DHT22;44930;52.878;6.168;2024-02-23T05:14:05;5.00;99.90
59148;DHT22;44930;52.878;6.168;2024-02-23T05:18:57;5.20;99.90
59148;DHT22;44930;52.878;6.168;2024-02-23T05:21:23;5.20;99.90
59148;DHT22;44930;52.878;6.168;2024-02-23T05:23:49;5.00;99.90
59148;DHT22;44930;52.878;6.168;2024-02-23T05:26:15;5.10;99.90
59148;DHT22;44930;52.878;6.168;2024-02-23T05:28:40;5.20;99.90
59148;DHT22;44930;52.878;6.168;2024-02-23T05:31:06;5.10;99.90
59148;DHT22;44930;52.878;6.168;2024-02-23T05:33:31;5.20;99.90
59148;DHT22;44930;52.878;6.168;2024-02-23T05:35:57;5.10;99.90
59148;DHT22;44930;52.878;6.168;2024-02-23T05:38:23;5.10;99.90
59148;DHT22;44930;52.878;6.168;2024-02-23T05:40:48;5.20;99.90
59148;DHT22;44930;52.878;6.168;2024-02-23T05:43:14;5.20;99.90
59148;DHT22;44930;52.878;6.168;2024-02-23T05:45:40;5.20;99.90
59148;DHT22;44930;52.878;6.168;2024-02-23T05:48:06;5.00;99.90
59148;DHT22;44930;52.878;6.168;2024-02-23T05:50:32;5.30;99.90
59148;DHT22;44930;52.878;6.168;2024-02-23T05:52:58;5.20;99.90
59148;DHT22;44930;52.878;6.168;2024-02-23T05:55:23;5.20;99.90
59148;DHT22;44930;52.878;6.168;2024-02-23T05:57:49;5.10;99.90
59148;DHT22;44930;52.878;6.168;2024-02-23T06:00:17;5.10;99.90
59148;DHT22;44930;52.878;6.168;2024-02-23T06:02:45;5.10;99.90
59148;DHT22;44930;52.878;6.168;2024-02-23T06:05:12;5.00;99.90
59148;DHT22;44930;52.878;6.168;2024-02-23T06:07:37;5.10;99.90
59148;DHT22;44930;52.878;6.168;2024-02-23T06:10:04;5.00;99.90
59148;DHT22;44930;52.878;6.168;2024-02-23T06:12:30;5.10;99.90
59148;DHT22;44930;52.878;6.168;2024-02-23T06:14:56;5.00;99.90
59148;DHT22;44930;52.878;6.168;2024-02-23T06:17:22;4.90;99.90
59148;DHT22;44930;52.878;6.168;2024-02-23T06:19:48;4.80;99.90
59148;DHT22;44930;52.878;6.168;2024-02-23T06:22:14;4.80;99.90
59148;DHT22;44930;52.878;6.168;2024-02-23T06:27:08;4.80;99.90
59148;DHT22;44930;52.878;6.168;2024-02-23T06:29:35;4.90;99.90
59148;DHT22;44930;52.878;6.168;2024-02-23T06:32:00;4.80;99.90
59148;DHT22;44930;52.878;6.168;2024-02-23T06:34:28;4.80;99.90
59148;DHT22;44930;52.878;6.168;2024-02-23T06:39:20;4.90;99.90
59148;DHT22;44930;52.878;6.168;2024-02-23T06:41:45;4.90;99.90
59148;DHT22;44930;52.878;6.168;2024-02-23T06:44:11;5.00;99.90
59148;DHT22;44930;52.878;6.168;2024-02-23T06:46:37;5.00;99.90
59148;DHT22;44930;52.878;6.168;2024-02-23T06:56:22;5.10;99.90
59148;DHT22;44930;52.878;6.168;2024-02-23T07:01:14;5.20;99.90
59148;DHT22;44930;52.878;6.168;2024-02-23T07:03:39;5.20;99.90
59148;DHT22;44930;52.878;6.168;2024-02-23T07:06:07;5.20;99.90
59148;DHT22;44930;52.878;6.168;2024-02-23T07:08:35;5.30;99.90
59148;DHT22;44930;52.878;6.168;2024-02-23T07:11:01;5.10;99.90
59148;DHT22;44930;52.878;6.168;2024-02-23T07:13:27;5.30;99.90
59148;DHT22;44930;52.878;6.168;2024-02-23T07:15:52;5.40;99.90
59148;DHT22;44930;52.878;6.168;2024-02-23T07:18:18;5.30;99.90
59148;DHT22;44930;52.878;6.168;2024-02-23T07:20:43;5.40;99.90
59148;DHT22;44930;52.878;6.168;2024-02-23T07:23:09;5.40;99.90
59148;DHT22;44930;52.878;6.168;2024-02-23T07:25:35;5.40;99.90
59148;DHT22;44930;52.878;6.168;2024-02-23T07:28:01;5.40;99.90
59148;DHT22;44930;52.878;6.168;2024-02-23T07:30:26;5.50;99.90
59148;DHT22;44930;52.878;6.168;2024-02-23T07:32:52;5.40;99.90
59148;DHT22;44930;52.878;6.168;2024-02-23T07:35:17;5.40;99.90
59148;DHT22;44930;52.878;6.168;2024-02-23T07:37:43;5.50;99.90
59148;DHT22;44930;52.878;6.168;2024-02-23T07:40:09;5.50;99.90
59148;DHT22;44930;52.878;6.168;2024-02-23T07:45:04;5.40;99.90
59148;DHT22;44930;52.878;6.168;2024-02-23T07:47:31;5.30;99.90
59148;DHT22;44930;52.878;6.168;2024-02-23T07:49:57;5.40;99.90
59148;DHT22;44930;52.878;6.168;2024-02-23T07:52:22;5.40;99.90
59148;DHT22;44930;52.878;6.168;2024-02-23T07:54:52;5.50;99.90
59148;DHT22;44930;52.878;6.168;2024-02-23T07:57:19;5.30;99.90
59148;DHT22;44930;52.878;6.168;2024-02-23T07:59:44;5.50;99.90
59148;DHT22;44930;52.878;6.168;2024-02-23T08:02:10;5.40;99.90
59148;DHT22;44930;52.878;6.168;2024-02-23T08:04:36;5.60;99.90
59148;DHT22;44930;52.878;6.168;2024-02-23T08:07:02;5.50;99.90
59148;DHT22;44930;52.878;6.168;2024-02-23T08:09:27;5.40;99.90
59148;DHT22;44930;52.878;6.168;2024-02-23T08:11:53;5.50;99.90
59148;DHT22;44930;52.878;6.168;2024-02-23T08:14:19;5.60;99.90
59148;DHT22;44930;52.878;6.168;2024-02-23T08:16:44;5.60;99.90
59148;DHT22;44930;52.878;6.168;2024-02-23T08:19:10;5.70;99.90
59148;DHT22;44930;52.878;6.168;2024-02-23T08:24:01;5.70;99.90
59148;DHT22;44930;52.878;6.168;2024-02-23T08:26:28;5.70;99.90
59148;DHT22;44930;52.878;6.168;2024-02-23T08:28:53;5.70;99.90
59148;DHT22;44930;52.878;6.168;2024-02-23T08:31:19;5.80;99.90
59148;DHT22;44930;52.878;6.168;2024-02-23T08:36:12;5.80;99.90
59148;DHT22;44930;52.878;6.168;2024-02-23T08:38:38;5.90;99.90
59148;DHT22;44930;52.878;6.168;2024-02-23T08:41:04;5.90;99.90
59148;DHT22;44930;52.878;6.168;2024-02-23T08:43:29;6.00;99.90
59148;DHT22;44930;52.878;6.168;2024-02-23T08:45:55;6.00;99.90
59148;DHT22;44930;52.878;6.168;2024-02-23T08:48:21;6.10;99.90
59148;DHT22;44930;52.878;6.168;2024-02-23T08:50:46;6.20;99.90
59148;DHT22;44930;52.878;6.168;2024-02-23T08:53:12;6.20;99.90
59148;DHT22;44930;52.878;6.168;2024-02-23T08:55:38;6.20;99.90
59148;DHT22;44930;52.878;6.168;2024-02-23T08:58:03;6.30;99.90
59148;DHT22;44930;52.878;6.168;2024-02-23T09:00:31;6.30;99.90
59148;DHT22;44930;52.878;6.168;2024-02-23T09:02:57;6.40;99.90
59148;DHT22;44930;52.878;6.168;2024-02-23T09:05:22;6.30;99.90
59148;DHT22;44930;52.878;6.168;2024-02-23T09:07:48;6.30;99.90
59148;DHT22;44930;52.878;6.168;2024-02-23T09:10:14;6.20;99.90
59148;DHT22;44930;52.878;6.168;2024-02-23T09:12:39;6.30;99.90
59148;DHT22;44930;52.878;6.168;2024-02-23T09:15:05;6.20;99.90
59148;DHT22;44930;52.878;6.168;2024-02-23T09:17:31;6.20;99.90
59148;DHT22;44930;52.878;6.168;2024-02-23T09:19:57;6.50;99.90
59148;DHT22;44930;52.878;6.168;2024-02-23T09:22:23;6.40;99.90
59148;DHT22;44930;52.878;6.168;2024-02-23T09:24:49;6.40;99.90
59148;DHT22;44930;52.878;6.168;2024-02-23T09:27:14;6.40;99.90
59148;DHT22;44930;52.878;6.168;2024-02-23T09:32:09;6.50;99.90
59148;DHT22;44930;52.878;6.168;2024-02-23T09:34:35;6.70;99.90
59148;DHT22;44930;52.878;6.168;2024-02-23T09:37:00;6.70;99.90
59148;DHT22;44930;52.878;6.168;2024-02-23T09:39:26;6.70;99.90
59148;DHT22;44930;52.878;6.168;2024-02-23T09:44:22;6.80;99.90
59148;DHT22;44930;52.878;6.168;2024-02-23T09:46:48;6.80;99.90
59148;DHT22;44930;52.878;6.168;2024-02-23T09:54:10;6.70;99.90
59148;DHT22;44930;52.878;6.168;2024-02-23T09:56:36;6.90;99.90
59148;DHT22;44930;52.878;6.168;2024-02-23T10:01:31;6.60;99.90
59148;DHT22;44930;52.878;6.168;2024-02-23T10:04:00;6.20;99.90
59148;DHT22;44930;52.878;6.168;2024-02-23T10:06:26;6.60;99.90
59148;DHT22;44930;52.878;6.168;2024-02-23T10:13:51;6.70;99.90
59148;DHT22;44930;52.878;6.168;2024-02-23T10:16:20;6.50;99.90
59148;DHT22;44930;52.878;6.168;2024-02-23T10:18:49;6.90;99.90
59148;DHT22;44930;52.878;6.168;2024-02-23T10:23:44;7.00;99.90
59148;DHT22;44930;52.878;6.168;2024-02-23T10:26:11;6.90;99.90
59148;DHT22;44930;52.878;6.168;2024-02-23T10:31:06;6.90;99.90
59148;DHT22;44930;52.878;6.168;2024-02-23T10:33:32;6.90;99.90
59148;DHT22;44930;52.878;6.168;2024-02-23T10:38:24;7.00;99.90
59148;DHT22;44930;52.878;6.168;2024-02-23T10:40:55;7.10;99.90
59148;DHT22;44930;52.878;6.168;2024-02-23T10:46:09;6.90;99.90
59148;DHT22;44930;52.878;6.168;2024-02-23T10:48:40;7.00;99.90
59148;DHT22;44930;52.878;6.168;2024-02-23T10:51:07;6.90;99.90
59148;DHT22;44930;52.878;6.168;2024-02-23T10:53:34;6.80;99.90
59148;DHT22;44930;52.878;6.168;2024-02-23T10:56:00;6.80;99.90
59148;DHT22;44930;52.878;6.168;2024-02-23T11:00:57;6.80;99.90
59148;DHT22;44930;52.878;6.168;2024-02-23T11:03:28;6.80;99.90
59148;DHT22;44930;52.878;6.168;2024-02-23T11:05:54;6.80;99.90
59148;DHT22;44930;52.878;6.168;2024-02-23T11:08:20;6.70;99.90
59148;DHT22;44930;52.878;6.168;2024-02-23T11:10:51;7.00;99.90
59148;DHT22;44930;52.878;6.168;2024-02-23T11:15:44;6.80;99.90
59148;DHT22;44930;52.878;6.168;2024-02-23T11:20:55;6.60;99.90
59148;DHT22;44930;52.878;6.168;2024-02-23T11:23:22;6.80;99.90
59148;DHT22;44930;52.878;6.168;2024-02-23T11:33:48;6.60;99.90
59148;DHT22;44930;52.878;6.168;2024-02-23T11:36:55;7.20;99.90
59148;DHT22;44930;52.878;6.168;2024-02-23T11:39:14;7.00;99.90
59148;DHT22;44930;52.878;6.168;2024-02-23T11:41:39;7.00;99.90
59148;DHT22;44930;52.878;6.168;2024-02-23T11:44:06;6.80;99.90
59148;DHT22;44930;52.878;6.168;2024-02-23T11:46:32;6.90;99.90
59148;DHT22;44930;52.878;6.168;2024-02-23T11:51:25;6.90;99.90
59148;DHT22;44930;52.878;6.168;2024-02-23T11:53:55;7.20;99.90
59148;DHT22;44930;52.878;6.168;2024-02-23T11:58:53;7.20;99.90
59148;DHT22;44930;52.878;6.168;2024-02-23T12:03:44;7.30;99.90
59148;DHT22;44930;52.878;6.168;2024-02-23T12:06:11;7.20;99.90
59148;DHT22;44930;52.878;6.168;2024-02-23T12:11:07;7.20;99.90
59148;DHT22;44930;52.878;6.168;2024-02-23T12:13:34;7.30;99.90
59148;DHT22;44930;52.878;6.168;2024-02-23T12:16:00;7.30;99.90
59148;DHT22;44930;52.878;6.168;2024-02-23T12:18:26;7.50;99.90
59148;DHT22;44930;52.878;6.168;2024-02-23T12:20:52;7.30;99.90
59148;DHT22;44930;52.878;6.168;2024-02-23T12:23:18;7.40;99.90
59148;DHT22;44930;52.878;6.168;2024-02-23T12:28:23;7.40;99.90
59148;DHT22;44930;52.878;6.168;2024-02-23T12:30:59;7.50;99.90
59148;DHT22;44930;52.878;6.168;2024-02-23T12:33:27;7.50;99.90
59148;DHT22;44930;52.878;6.168;2024-02-23T12:35:54;7.50;99.90
59148;DHT22;44930;52.878;6.168;2024-02-23T12:38:21;7.50;99.90
59148;DHT22;44930;52.878;6.168;2024-02-23T12:40:47;7.50;99.90
59148;DHT22;44930;52.878;6.168;2024-02-23T12:43:13;7.50;99.90
59148;DHT22;44930;52.878;6.168;2024-02-23T12:45:38;7.50;99.90
59148;DHT22;44930;52.878;6.168;2024-02-23T12:48:05;7.50;99.90
59148;DHT22;44930;52.878;6.168;2024-02-23T12:52:57;7.50;99.90
59148;DHT22;44930;52.878;6.168;2024-02-23T12:57:49;7.50;99.90
59148;DHT22;44930;52.878;6.168;2024-02-23T13:02:41;7.70;99.90
59148;DHT22;44930;52.878;6.168;2024-02-23T13:05:07;7.70;99.90
59148;DHT22;44930;52.878;6.168;2024-02-23T13:07:33;7.70;99.90
59148;DHT22;44930;52.878;6.168;2024-02-23T13:09:59;7.80;99.90
59148;DHT22;44930;52.878;6.168;2024-02-23T13:12:24;7.80;99.90
59148;DHT22;44930;52.878;6.168;2024-02-23T13:19:45;7.80;99.90
59148;DHT22;44930;52.878;6.168;2024-02-23T13:22:11;7.80;99.90
59148;DHT22;44930;52.878;6.168;2024-02-23T13:24:36;7.70;99.90
59148;DHT22;44930;52.878;6.168;2024-02-23T13:27:05;7.80;99.90
59148;DHT22;44930;52.878;6.168;2024-02-23T13:29:30;7.80;99.90
59148;DHT22;44930;52.878;6.168;2024-02-23T13:31:56;7.90;99.90
59148;DHT22;44930;52.878;6.168;2024-02-23T13:34:22;7.80;99.90
59148;DHT22;44930;52.878;6.168;2024-02-23T13:36:47;7.80;99.90
59148;DHT22;44930;52.878;6.168;2024-02-23T13:39:15;7.80;99.90
59148;DHT22;44930;52.878;6.168;2024-02-23T13:41:41;7.90;99.90
59148;DHT22;44930;52.878;6.168;2024-02-23T13:44:07;7.80;99.90
59148;DHT22;44930;52.878;6.168;2024-02-23T13:49:06;8.00;99.90
59148;DHT22;44930;52.878;6.168;2024-02-23T13:51:32;7.90;99.90
59148;DHT22;44930;52.878;6.168;2024-02-23T13:53:59;7.80;99.90
59148;DHT22;44930;52.878;6.168;2024-02-23T13:56:24;7.80;99.90
59148;DHT22;44930;52.878;6.168;2024-02-23T13:58:50;7.80;99.90
59148;DHT22;44930;52.878;6.168;2024-02-23T14:01:16;7.90;99.90
59148;DHT22;44930;52.878;6.168;2024-02-23T14:03:42;7.80;99.90
59148;DHT22;44930;52.878;6.168;2024-02-23T14:06:08;7.90;99.90
59148;DHT22;44930;52.878;6.168;2024-02-23T14:08:34;7.90;99.90
59148;DHT22;44930;52.878;6.168;2024-02-23T14:13:31;7.90;99.90
59148;DHT22;44930;52.878;6.168;2024-02-23T14:15:57;7.90;99.90
59148;DHT22;44930;52.878;6.168;2024-02-23T14:18:23;7.90;99.90
59148;DHT22;44930;52.878;6.168;2024-02-23T14:20:49;7.90;99.90
59148;DHT22;44930;52.878;6.168;2024-02-23T14:23:14;7.90;99.90
59148;DHT22;44930;52.878;6.168;2024-02-23T14:28:06;7.90;99.90
59148;DHT22;44930;52.878;6.168;2024-02-23T14:30:32;7.90;99.90
59148;DHT22;44930;52.878;6.168;2024-02-23T14:32:57;8.10;99.90
59148;DHT22;44930;52.878;6.168;2024-02-23T14:35:23;8.00;99.90
59148;DHT22;44930;52.878;6.168;2024-02-23T14:37:48;8.10;99.90
59148;DHT22;44930;52.878;6.168;2024-02-23T14:40:14;8.10;99.90
59148;DHT22;44930;52.878;6.168;2024-02-23T14:42:40;8.10;99.90
59148;DHT22;44930;52.878;6.168;2024-02-23T14:45:06;8.10;99.90
59148;DHT22;44930;52.878;6.168;2024-02-23T14:47:32;8.10;99.90
59148;DHT22;44930;52.878;6.168;2024-02-23T14:52:25;8.20;99.90
59148;DHT22;44930;52.878;6.168;2024-02-23T14:54:51;8.30;99.90
59148;DHT22;44930;52.878;6.168;2024-02-23T14:59:42;8.20;99.90
59148;DHT22;44930;52.878;6.168;2024-02-23T15:02:19;8.30;99.90
59148;DHT22;44930;52.878;6.168;2024-02-23T15:04:45;8.30;99.90
59148;DHT22;44930;52.878;6.168;2024-02-23T15:07:11;8.20;99.90
59148;DHT22;44930;52.878;6.168;2024-02-23T15:09:37;8.10;99.90
59148;DHT22;44930;52.878;6.168;2024-02-23T15:12:03;8.10;99.90
59148;DHT22;44930;52.878;6.168;2024-02-23T15:14:29;7.90;99.90
59148;DHT22;44930;52.878;6.168;2024-02-23T15:16:54;8.10;99.90
59148;DHT22;44930;52.878;6.168;2024-02-23T15:19:20;8.20;99.90
59148;DHT22;44930;52.878;6.168;2024-02-23T15:21:48;8.10;99.90
59148;DHT22;44930;52.878;6.168;2024-02-23T15:24:15;8.10;99.90
59148;DHT22;44930;52.878;6.168;2024-02-23T15:26:43;7.90;99.90
59148;DHT22;44930;52.878;6.168;2024-02-23T15:29:09;7.90;99.90
59148;DHT22;44930;52.878;6.168;2024-02-23T15:31:35;7.90;99.90
59148;DHT22;44930;52.878;6.168;2024-02-23T15:34:01;7.90;99.90
59148;DHT22;44930;52.878;6.168;2024-02-23T15:36:27;7.90;99.90
59148;DHT22;44930;52.878;6.168;2024-02-23T15:38:53;7.80;99.90
59148;DHT22;44930;52.878;6.168;2024-02-23T15:41:24;7.70;99.90
59148;DHT22;44930;52.878;6.168;2024-02-23T15:46:16;7.80;99.90
59148;DHT22;44930;52.878;6.168;2024-02-23T15:48:42;7.80;99.90
59148;DHT22;44930;52.878;6.168;2024-02-23T15:53:33;7.70;99.90
59148;DHT22;44930;52.878;6.168;2024-02-23T15:55:59;7.70;99.90
59148;DHT22;44930;52.878;6.168;2024-02-23T15:58:25;7.60;99.90
59148;DHT22;44930;52.878;6.168;2024-02-23T16:00:51;7.60;99.90
59148;DHT22;44930;52.878;6.168;2024-02-23T16:08:12;7.60;99.90
59148;DHT22;44930;52.878;6.168;2024-02-23T16:10:37;7.60;99.90
59148;DHT22;44930;52.878;6.168;2024-02-23T16:13:05;7.80;99.90
59148;DHT22;44930;52.878;6.168;2024-02-23T16:15:31;7.60;99.90
59148;DHT22;44930;52.878;6.168;2024-02-23T16:17:57;7.60;99.90
59148;DHT22;44930;52.878;6.168;2024-02-23T16:22:51;7.60;99.90
59148;DHT22;44930;52.878;6.168;2024-02-23T16:25:17;7.50;99.90
59148;DHT22;44930;52.878;6.168;2024-02-23T16:30:10;7.70;99.90
59148;DHT22;44930;52.878;6.168;2024-02-23T16:32:36;7.60;99.90
59148;DHT22;44930;52.878;6.168;2024-02-23T16:35:02;7.50;99.90
59148;DHT22;44930;52.878;6.168;2024-02-23T16:39:56;7.60;99.90
59148;DHT22;44930;52.878;6.168;2024-02-23T16:42:22;7.60;99.90
59148;DHT22;44930;52.878;6.168;2024-02-23T16:44:47;7.50;99.90
59148;DHT22;44930;52.878;6.168;2024-02-23T16:47:13;7.50;99.90
59148;DHT22;44930;52.878;6.168;2024-02-23T16:49:39;7.30;99.90
59148;DHT22;44930;52.878;6.168;2024-02-23T16:52:06;7.40;99.90
59148;DHT22;44930;52.878;6.168;2024-02-23T16:59:24;7.40;99.90
59148;DHT22;44930;52.878;6.168;2024-02-23T17:01:50;7.30;99.90
59148;DHT22;44930;52.878;6.168;2024-02-23T17:04:16;7.30;99.90
59148;DHT22;44930;52.878;6.168;2024-02-23T17:06:41;7.30;99.90
59148;DHT22;44930;52.878;6.168;2024-02-23T17:09:07;7.30;99.90
59148;DHT22;44930;52.878;6.168;2024-02-23T17:11:36;7.20;99.90
59148;DHT22;44930;52.878;6.168;2024-02-23T17:14:02;7.30;99.90
59148;DHT22;44930;52.878;6.168;2024-02-23T17:16:29;7.20;99.90
59148;DHT22;44930;52.878;6.168;2024-02-23T17:18:55;7.20;99.90
59148;DHT22;44930;52.878;6.168;2024-02-23T17:21:22;7.10;99.90
59148;DHT22;44930;52.878;6.168;2024-02-23T17:23:48;7.20;99.90
59148;DHT22;44930;52.878;6.168;2024-02-23T17:26:14;7.20;99.90
59148;DHT22;44930;52.878;6.168;2024-02-23T17:28:39;7.40;99.90
59148;DHT22;44930;52.878;6.168;2024-02-23T17:31:07;7.10;99.90
59148;DHT22;44930;52.878;6.168;2024-02-23T17:33:32;7.00;99.90
59148;DHT22;44930;52.878;6.168;2024-02-23T17:35:58;7.20;99.90
59148;DHT22;44930;52.878;6.168;2024-02-23T17:38:24;7.20;99.90
59148;DHT22;44930;52.878;6.168;2024-02-23T17:40:50;7.10;99.90
59148;DHT22;44930;52.878;6.168;2024-02-23T17:43:18;7.10;99.90
59148;DHT22;44930;52.878;6.168;2024-02-23T17:45:44;6.90;99.90
59148;DHT22;44930;52.878;6.168;2024-02-23T17:50:36;6.90;99.90
59148;DHT22;44930;52.878;6.168;2024-02-23T17:53:02;6.90;99.90
59148;DHT22;44930;52.878;6.168;2024-02-23T17:55:28;6.70;99.90
59148;DHT22;44930;52.878;6.168;2024-02-23T17:57:54;6.60;99.90
59148;DHT22;44930;52.878;6.168;2024-02-23T18:00:19;6.60;99.90
59148;DHT22;44930;52.878;6.168;2024-02-23T18:02:45;6.40;99.90
59148;DHT22;44930;52.878;6.168;2024-02-23T18:05:11;6.30;99.90
59148;DHT22;44930;52.878;6.168;2024-02-23T18:07:36;6.40;99.90
59148;DHT22;44930;52.878;6.168;2024-02-23T18:10:03;6.40;99.90
59148;DHT22;44930;52.878;6.168;2024-02-23T18:14:54;6.40;99.90
59148;DHT22;44930;52.878;6.168;2024-02-23T18:17:20;6.40;99.90
59148;DHT22;44930;52.878;6.168;2024-02-23T18:19:47;6.40;99.90
59148;DHT22;44930;52.878;6.168;2024-02-23T18:22:13;6.50;99.90
59148;DHT22;44930;52.878;6.168;2024-02-23T18:27:06;6.50;99.90
59148;DHT22;44930;52.878;6.168;2024-02-23T18:29:32;6.50;99.90
59148;DHT22;44930;52.878;6.168;2024-02-23T18:36:51;6.60;99.90
59148;DHT22;44930;52.878;6.168;2024-02-23T18:39:17;6.50;99.90
59148;DHT22;44930;52.878;6.168;2024-02-23T18:41:42;6.50;99.90
59148;DHT22;44930;52.878;6.168;2024-02-23T18:44:11;6.60;99.90